createdAt,value
2018-08-13T15:20:27.299Z,25.00
2018-08-13T15:22:56.856Z,50.90
2018-08-13T15:25:28.074Z,50.60
2018-08-13T15:27:59.520Z,50.10
2018-08-13T15:33:00.741Z,49.40
2018-08-13T15:35:34.681Z,48.70
2018-08-13T15:38:29.612Z,48.40
2018-08-13T15:43:45.575Z,48.50
2018-08-13T15:46:16.342Z,48.80
2018-08-13T15:51:20.272Z,49.20
2018-08-13T15:53:51.127Z,49.10
2018-08-13T15:56:27.758Z,48.60
2018-08-13T15:58:56.555Z,48.60
2018-08-13T16:01:26.605Z,49.30
2018-08-13T16:03:56.791Z,48.70
2018-08-13T16:08:54.707Z,48.60
2018-08-13T16:11:24.796Z,49.00
2018-08-13T16:13:56.446Z,49.30
2018-08-13T16:18:59.000Z,50.40
2018-08-13T16:21:29.291Z,50.70
2018-08-13T16:24:07.010Z,51.10
2018-08-13T16:26:37.698Z,51.20
2018-08-13T16:29:09.886Z,50.60
2018-08-13T16:31:39.164Z,50.40
2018-08-13T16:36:36.139Z,50.00
2018-08-13T16:39:14.843Z,50.10
2018-08-13T16:41:43.468Z,49.40
2018-08-13T16:44:12.043Z,48.90
2018-08-13T16:46:40.691Z,48.40
2018-08-13T16:49:09.219Z,47.70
2018-08-13T16:51:37.743Z,47.30
2018-08-13T16:54:06.304Z,47.30
2018-08-13T16:56:34.995Z,47.70
2018-08-13T16:59:03.736Z,47.90
2018-08-13T17:01:32.673Z,47.60
2018-08-13T17:04:01.433Z,47.80
2018-08-13T17:06:30.046Z,47.80
2018-08-13T17:09:02.301Z,47.50
2018-08-13T17:11:35.539Z,47.40
2018-08-13T17:16:33.788Z,48.00
2018-08-13T17:19:02.521Z,47.70
2018-08-13T17:21:31.204Z,47.90
2018-08-13T17:26:51.529Z,47.90
2018-08-13T17:29:20.080Z,47.90
2018-08-13T17:31:48.604Z,48.00
2018-08-13T17:34:17.206Z,48.40
2018-08-13T17:36:47.755Z,48.30
2018-08-13T17:39:16.970Z,48.30
2018-08-13T17:41:45.735Z,48.40
2018-08-13T17:44:17.424Z,48.50
2018-08-13T17:49:14.496Z,49.10
2018-08-13T17:51:44.115Z,49.40
2018-08-13T17:54:12.697Z,49.50
2018-08-13T17:56:41.394Z,49.50
2018-08-13T17:59:09.939Z,49.80
2018-08-13T18:01:38.531Z,49.70
2018-08-13T18:04:07.025Z,50.00
2018-08-13T18:06:35.637Z,50.00
2018-08-13T18:09:06.328Z,50.20
2018-08-13T18:11:35.327Z,50.40
2018-08-13T18:16:32.784Z,51.00
2018-08-13T18:19:01.463Z,51.30
2018-08-13T18:21:29.948Z,51.60
2018-08-13T18:23:58.495Z,52.00
2018-08-13T18:26:27.036Z,52.20
2018-08-13T18:31:23.702Z,52.90
2018-08-13T18:33:52.270Z,53.90
2018-08-13T18:36:20.849Z,53.30
2018-08-13T18:38:51.013Z,53.40
2018-08-13T18:41:19.743Z,53.80
2018-08-13T18:43:48.635Z,53.80
2018-08-13T18:46:17.340Z,53.80
2018-08-13T18:48:46.037Z,54.30
2018-08-13T18:51:14.756Z,54.50
2018-08-13T18:53:43.519Z,54.70
2018-08-13T18:56:12.147Z,54.80
2018-08-13T18:58:41.648Z,54.20
2018-08-13T19:01:13.989Z,55.00
2018-08-13T19:03:42.847Z,55.20
2018-08-13T19:06:11.367Z,53.70
2018-08-13T19:08:40.246Z,53.80
2018-08-13T19:11:15.845Z,53.20
2018-08-13T19:13:45.745Z,53.00
2018-08-13T19:16:14.383Z,52.80
2018-08-13T19:18:42.979Z,52.80
2018-08-13T19:21:11.802Z,52.70
2018-08-13T19:23:40.339Z,52.70
2018-08-13T19:26:08.897Z,52.60
2018-08-13T19:31:05.723Z,54.30
2018-08-13T19:33:34.279Z,54.90
2018-08-13T19:36:02.822Z,55.60
2018-08-13T19:38:31.415Z,56.10
2018-08-13T19:40:59.897Z,56.30
2018-08-13T19:45:56.748Z,56.90
2018-08-13T19:48:25.252Z,57.10
2018-08-13T19:50:53.776Z,57.30
2018-08-13T19:53:22.329Z,57.50
2018-08-13T19:55:53.243Z,57.50
2018-08-13T19:58:21.837Z,57.80
2018-08-13T20:00:54.597Z,57.90
2018-08-13T20:03:23.147Z,57.90
2018-08-13T20:05:51.786Z,58.00
2018-08-13T20:08:20.454Z,58.10
2018-08-13T20:10:49.179Z,58.40
2018-08-13T20:13:17.711Z,58.40
2018-08-13T20:15:46.270Z,58.70
2018-08-13T20:18:14.865Z,58.50
2018-08-13T20:20:43.438Z,59.40
2018-08-13T20:23:12.183Z,58.70
2018-08-13T20:25:40.848Z,59.20
2018-08-13T20:28:09.748Z,58.80
2018-08-13T20:30:38.477Z,59.00
2018-08-13T20:33:10.547Z,59.00
2018-08-13T20:35:39.600Z,58.90
2018-08-13T20:38:08.766Z,59.20
2018-08-13T20:40:37.737Z,59.20
2018-08-13T20:43:06.588Z,59.10
2018-08-13T20:45:35.159Z,59.20
2018-08-13T20:48:03.752Z,59.10
2018-08-13T20:50:35.255Z,59.10
2018-08-13T20:53:03.914Z,59.30
2018-08-13T20:55:32.655Z,59.10
2018-08-13T20:58:05.846Z,59.20
2018-08-13T21:00:35.194Z,59.30
2018-08-13T21:03:04.466Z,59.70
2018-08-13T21:05:33.345Z,59.70
2018-08-13T21:08:02.629Z,60.00
2018-08-13T21:10:53.177Z,60.20
2018-08-13T21:13:36.548Z,60.30
2018-08-13T21:16:06.881Z,60.50
2018-08-13T21:18:35.532Z,60.60
2018-08-13T21:21:04.074Z,60.80
2018-08-13T21:23:32.737Z,60.90
2018-08-13T21:26:01.379Z,61.10
2018-08-13T21:28:30.580Z,61.10
2018-08-13T21:30:59.103Z,61.10
2018-08-13T21:33:27.718Z,61.20
2018-08-13T21:35:56.248Z,61.00
2018-08-13T21:38:24.798Z,61.00
2018-08-13T21:40:53.468Z,60.80
2018-08-13T21:43:22.025Z,61.00
2018-08-13T21:45:50.559Z,61.00
2018-08-13T22:01:18.880Z,61.10
2018-08-13T22:03:55.611Z,61.30
2018-08-13T22:06:24.761Z,64.70
2018-08-13T22:08:53.372Z,64.30
2018-08-13T22:11:21.999Z,63.60
2018-08-13T22:13:50.607Z,63.10
2018-08-13T22:21:50.160Z,62.00
2018-08-13T22:24:30.963Z,61.70
2018-08-13T22:27:04.444Z,61.40
2018-08-13T22:32:02.039Z,60.80
2018-08-13T22:34:30.787Z,61.10
2018-08-13T22:37:12.532Z,60.90
2018-08-13T22:39:41.181Z,60.90
2018-08-13T22:44:39.243Z,61.10
2018-08-13T22:47:07.946Z,61.00
2018-08-13T22:52:05.011Z,61.00
2018-08-13T22:54:33.522Z,61.10
2018-08-13T22:57:02.452Z,61.10
2018-08-13T22:59:31.266Z,61.00
2018-08-13T23:02:00.067Z,60.90
2018-08-13T23:04:29.854Z,60.90
2018-08-13T23:06:58.789Z,60.80
2018-08-13T23:09:27.418Z,60.70
2018-08-13T23:11:55.970Z,60.60
2018-08-13T23:14:33.454Z,60.20
2018-08-13T23:17:02.175Z,60.20
2018-08-13T23:19:30.695Z,60.30
2018-08-13T23:24:27.396Z,60.30
2018-08-13T23:26:55.942Z,60.20
2018-08-13T23:29:24.514Z,60.20
2018-08-13T23:31:53.090Z,60.40
2018-08-13T23:34:21.658Z,60.50
2018-08-13T23:36:50.175Z,60.40
2018-08-13T23:39:18.762Z,60.50
2018-08-13T23:41:47.320Z,60.50
2018-08-13T23:44:16.851Z,60.20
2018-08-13T23:46:46.131Z,60.20
2018-08-13T23:51:42.921Z,60.10
2018-08-13T23:54:11.497Z,60.40
2018-08-13T23:56:40.016Z,60.40
2018-08-13T23:59:08.527Z,60.50
